»·PEaware :: ASA625 KSFO-KRNO

ASA625 :: KSFO-KRNO

FLIGHT INFORMATION

Flight Status: Arrived
Operator:
Alaska Airlines
More flights by this operator :: More flights under this callsign
Pilot: Pratham R. (19019)
Aircraft: AIRBUS A320
(A320)
More flights by this aircraft type
Origin: KSFO San Francisco Intl
United States
Destination: KRNO Reno/Tahoe Intl
United States
More flights between these airports :: More routes between these airports
Route: NIITE3 ORRCA HOBOA WALAR
File this flight plan on PilotEdge
Remarks: RMK / SIMBRIEF
Altitude:
(Current/Filed)
25,000ft
Speed:
(Current/Filed)
393kts
Departed: 17-Jan-20 09:57 PM
Arrived: 17-Jan-20 10:37 PM
Distance/Time
Traveled:
166nm/0:40
Distance/Time
To Go:
Arrived

Flight Plot

Page will automatically refresh every two minutes.

Flight plan parsing failed; only flown route is shown


Map Options




Map Legend


Flown Route
Filed Route
Departure Airport
Arrival Airport
Navaid (VOR, NDB)
Fix

Horizontal Profiles

Position Reports

Time Latitude Longitude Heading Altitude Ground
Speed
17-Jan-20 21:19 37.617856 -122.380643 257 32ft 0kts
17-Jan-20 21:20 37.617856 -122.380643 257 32ft 0kts
17-Jan-20 21:21 37.617856 -122.380643 257 32ft 0kts
17-Jan-20 21:22 37.617856 -122.380643 257 32ft 0kts
17-Jan-20 21:23 37.617856 -122.380643 257 32ft 0kts
17-Jan-20 21:24 37.617856 -122.380643 257 32ft 0kts
17-Jan-20 21:25 37.617856 -122.380643 257 32ft 0kts
17-Jan-20 21:26 37.617856 -122.380643 257 32ft 0kts
17-Jan-20 21:27 37.617856 -122.380643 257 32ft 0kts
17-Jan-20 21:28 37.617856 -122.380643 257 32ft 0kts
17-Jan-20 21:29 37.617856 -122.380643 257 32ft 0kts
17-Jan-20 21:30 37.617856 -122.380643 257 32ft 0kts
17-Jan-20 21:31 37.617856 -122.380643 257 32ft 0kts
17-Jan-20 21:32 37.617856 -122.380643 257 32ft 0kts
17-Jan-20 21:33 37.617856 -122.380643 257 32ft 0kts
17-Jan-20 21:35 37.617856 -122.380643 257 32ft 0kts
17-Jan-20 21:36 37.617856 -122.380643 257 32ft 0kts
17-Jan-20 21:37 37.617856 -122.380643 257 32ft 0kts
17-Jan-20 21:38 37.617856 -122.380643 257 32ft 0kts
17-Jan-20 21:39 37.617856 -122.380643 257 32ft 0kts
17-Jan-20 21:40 37.617856 -122.380643 257 32ft 0kts
17-Jan-20 21:41 37.617856 -122.380643 257 32ft 0kts
17-Jan-20 21:42 37.617856 -122.380643 257 32ft 0kts
17-Jan-20 21:43 37.617856 -122.380643 257 32ft 0kts
17-Jan-20 21:44 37.617856 -122.380643 257 32ft 0kts
17-Jan-20 21:45 37.617919 -122.380292 257 32ft 2kts
17-Jan-20 21:46 37.618154 -122.379729 195 32ft 2kts
17-Jan-20 21:47 37.618417 -122.379790 151 32ft 0kts
17-Jan-20 21:48 37.618417 -122.379790 151 32ft 0kts
17-Jan-20 21:49 37.618417 -122.379790 151 32ft 0kts
17-Jan-20 21:50 37.618417 -122.379790 151 32ft 0kts
17-Jan-20 21:51 37.617957 -122.379560 165 31ft 9kts
17-Jan-20 21:52 37.614755 -122.380866 209 32ft 10kts
17-Jan-20 21:53 37.611354 -122.383118 206 32ft 13kts
17-Jan-20 21:54 37.609093 -122.384881 207 32ft 4kts
17-Jan-20 21:54 37.607738 -122.384981 177 32ft 8kts
17-Jan-20 21:55 37.606521 -122.382445 34 30ft 12kts
17-Jan-20 21:57 37.614927 -122.375345 28 21ft 144kts
17-Jan-20 21:58 37.653521 -122.339155 46 2819ft 217kts
17-Jan-20 21:58 37.700020 -122.311201 348 5250ft 281kts
17-Jan-20 22:00 37.780296 -122.328670 26 9168ft 301kts
17-Jan-20 22:01 37.838927 -122.264796 41 12136ft 332kts
17-Jan-20 22:01 37.891600 -122.203312 41 13181ft 385kts
17-Jan-20 22:02 37.966703 -122.115541 40 15591ft 402kts
17-Jan-20 22:04 38.064461 -122.000865 40 18273ft 422kts
17-Jan-20 22:04 38.129920 -121.923799 40 19832ft 433kts
17-Jan-20 22:05 38.219625 -121.817864 40 21749ft 446kts
17-Jan-20 22:06 38.310615 -121.710020 39 23434ft 458kts
17-Jan-20 22:07 38.394921 -121.609739 39 24056ft 486kts
17-Jan-20 22:08 38.478406 -121.507316 41 25288ft 476kts
17-Jan-20 22:09 38.558886 -121.404767 41 25369ft 486kts
17-Jan-20 22:10 38.629142 -121.314840 42 25367ft 487kts
17-Jan-20 22:11 38.706395 -121.215699 42 25358ft 487kts
17-Jan-20 22:12 38.787586 -121.111143 42 25353ft 485kts
17-Jan-20 22:13 38.866032 -121.009785 41 25361ft 481kts
17-Jan-20 22:14 38.949810 -120.901168 41 25316ft 479kts
17-Jan-20 22:15 39.037602 -120.786919 41 25253ft 486kts
17-Jan-20 22:16 39.112152 -120.689519 41 24888ft 467kts
17-Jan-20 22:17 39.185573 -120.593408 41 23159ft 451kts
17-Jan-20 22:18 39.257219 -120.499239 41 21333ft 437kts
17-Jan-20 22:19 39.327962 -120.405972 42 18497ft 413kts
17-Jan-20 22:20 39.393869 -120.318840 43 16098ft 362kts
17-Jan-20 22:21 39.450035 -120.235220 47 15990ft 336kts
17-Jan-20 22:22 39.504590 -120.151621 47 15992ft 336kts
17-Jan-20 22:23 39.559811 -120.066808 47 15470ft 330kts
17-Jan-20 22:24 39.612399 -119.986635 42 14079ft 322kts
17-Jan-20 22:25 39.680918 -119.951194 15 12733ft 306kts
17-Jan-20 22:26 39.752393 -119.936717 355 11786ft 273kts
17-Jan-20 22:27 39.810765 -119.902495 52 10283ft 269kts
17-Jan-20 22:28 39.818456 -119.817898 113 9324ft 272kts
17-Jan-20 22:29 39.765554 -119.769250 178 8168ft 263kts
17-Jan-20 22:30 39.703948 -119.768524 180 7748ft 234kts
17-Jan-20 22:31 39.646732 -119.768943 181 7167ft 221kts
17-Jan-20 22:32 39.595719 -119.769030 181 6106ft 182kts
17-Jan-20 22:33 39.558371 -119.769231 182 5430ft 148kts
17-Jan-20 22:34 39.524252 -119.769207 180 4727ft 137kts
17-Jan-20 22:35 39.496110 -119.769277 180 4424ft 47kts
17-Jan-20 22:36 39.492822 -119.769968 222 4424ft 0kts
17-Jan-20 22:37 39.493897 -119.770713 0 4424ft 20kts
17-Jan-20 22:38 39.498693 -119.770694 359 4424ft 19kts
17-Jan-20 22:39 39.502680 -119.770687 359 4424ft 12kts
17-Jan-20 22:40 39.503732 -119.772562 266 4424ft 6kts
17-Jan-20 22:41 39.503550 -119.774096 278 4424ft 0kts
17-Jan-20 22:42 39.503572 -119.773183 139 4424ft 4kts
17-Jan-20 22:43 39.503094 -119.773061 180 4424ft 0kts
17-Jan-20 22:44 39.503094 -119.773061 180 4424ft 0kts
17-Jan-20 22:45 39.503094 -119.773061 180 4424ft 0kts
17-Jan-20 22:46 39.503094 -119.773061 180 4424ft 0kts
17-Jan-20 22:47 39.503094 -119.773061 180 4424ft 0kts
17-Jan-20 22:48 39.503094 -119.773061 180 4424ft 0kts
17-Jan-20 22:49 39.503094 -119.773061 180 4424ft 0kts
17-Jan-20 22:50 39.503094 -119.773061 180 4424ft 0kts
17-Jan-20 22:51 39.503094 -119.773061 180 4424ft 0kts

Navigation Log

Ident Type
Flight plan parsing failed, navigation log unavailable